Time;durP1;ratioP1;P1;durP2;ratioP2;P2;SDS_P1;SDS_P2;PMS_P1;PMS_P2;Temp;Humidity;BMP_temperature;BMP_pressure;BME280_temperature;BME280_humidity;BME280_pressure;Samples;Min_cycle;Max_cycle;Signal;HPM_P1;HPM_P2
2023/08/22 00:01:11;;;;;;;;;;;;;;;;;;7373957;19;1817;-64
2023/08/22 00:03:40;;;;;;;;;;;;;;;;;;7371343;19;1388;-64
2023/08/22 00:06:08;;;;;;;;;;;;;;;;;;7373829;19;822;-62
2023/08/22 00:08:37;;;;;;;;;;;;;;;;;;7371944;19;802;-63
2023/08/22 00:11:05;;;;;;;;;;;;;;;;;;7372490;19;857;-63
2023/08/22 00:13:34;;;;;;;;;;;;;;;;;;7370183;19;1833;-63
2023/08/22 00:16:03;;;;;;;;;;;;;;;;;;7370206;19;882;-63
2023/08/22 00:18:31;;;;;;;;;;;;;;;;;;7371041;19;782;-63
2023/08/22 00:20:59;;;;;;;;;;;;;;;;;;7371889;19;866;-64
2023/08/22 00:23:28;;;;;;;;;;;;;;;;;;7372457;19;1332;-63
2023/08/22 00:25:56;;;;;;;;;;;;;;;;;;7371670;19;711;-63
2023/08/22 00:28:24;;;;;;;;;;;;;;;;;;7371542;19;672;-63
2023/08/22 00:30:49;;;;;;;;;;;;;;;;;;7370632;19;882;-61
2023/08/22 00:33:17;;;;;;;;;;;;;;;;;;7370837;19;1854;-63
2023/08/22 00:35:46;;;;;;;;;;;;;;;;;;7371587;19;826;-64
2023/08/22 00:38:14;;;;;;;;;;;;;;;;;;7370316;19;850;-64
2023/08/22 00:40:42;;;;;;;;;;;;;;;;;;7372217;19;806;-63
2023/08/22 00:43:10;;;;;;;;;;;;;;;;;;7371153;19;1341;-63
2023/08/22 00:45:40;;;;;;;;;;;;;;;;;;7369233;19;723;-64
2023/08/22 00:48:10;;;;;;;;;;;;;;;;;;7368539;19;844;-64
2023/08/22 00:50:38;;;;;;;;;;;;;;;;;;7370178;19;885;-64
2023/08/22 00:53:07;;;;;;;;;;;;;;;;;;7367995;19;1838;-63
2023/08/22 00:55:35;;;;;;;;;;;;;;;;;;7369542;19;897;-65
2023/08/22 00:58:03;;;;;;;;;;;;;;;;;;7373404;19;806;-64
2023/08/22 01:00:32;;;;;;;;;;;;;;;;;;7367857;19;829;-64
2023/08/22 01:03:00;;;;;;;;;;;;;;;;;;7369978;19;1281;-65
2023/08/22 01:05:28;;;;;;;;;;;;;;;;;;7368735;19;786;-64
2023/08/22 01:07:56;;;;;;;;;;;;;;;;;;7369951;19;878;-64
2023/08/22 01:10:24;;;;;;;;;;;;;;;;;;7368948;19;854;-64
2023/08/22 01:12:50;;;;;;;;;;;;;;;;;;7369062;19;1829;-65
2023/08/22 01:15:18;;;;;;;;;;;;;;;;;;7369400;19;1413;-65
2023/08/22 01:17:46;;;;;;;;;;;;;;;;;;7368527;19;865;-64
2023/08/22 01:20:15;;;;;;;;;;;;;;;;;;7367482;19;876;-63
2023/08/22 01:22:43;;;;;;;;;;;;;;;;;;7370011;19;883;-65
2023/08/22 01:25:11;;;;;;;;;;;;;;;;;;7366953;19;1278;-64
2023/08/22 01:27:39;;;;;;;;;;;;;;;;;;7369375;19;766;-64
2023/08/22 01:30:08;;;;;;;;;;;;;;;;;;7367089;19;1466;-64
2023/08/22 01:32:36;;;;;;;;;;;;;;;;;;7373077;19;1845;-63
2023/08/22 01:35:05;;;;;;;;;;;;;;;;;;7367529;19;1281;-63
2023/08/22 01:37:33;;;;;;;;;;;;;;;;;;7367767;19;779;-63
2023/08/22 01:40:01;;;;;;;;;;;;;;;;;;7367526;19;840;-64
2023/08/22 01:42:29;;;;;;;;;;;;;;;;;;7369580;19;737;-64
2023/08/22 01:44:57;;;;;;;;;;;;;;;;;;7365119;19;1372;-64
2023/08/22 01:47:25;;;;;;;;;;;;;;;;;;7367147;19;785;-65
2023/08/22 01:49:53;;;;;;;;;;;;;;;;;;7371903;19;821;-64
2023/08/22 01:52:23;;;;;;;;;;;;;;;;;;7367683;19;893;-65
2023/08/22 01:54:51;;;;;;;;;;;;;;;;;;7364759;19;1814;-65
2023/08/22 01:57:19;;;;;;;;;;;;;;;;;;7367692;19;790;-64
2023/08/22 01:59:47;;;;;;;;;;;;;;;;;;7368557;19;873;-64
2023/08/22 02:02:15;;;;;;;;;;;;;;;;;;7372396;19;1385;-64
2023/08/22 02:04:44;;;;;;;;;;;;;;;;;;7365577;19;1338;-64
2023/08/22 02:07:12;;;;;;;;;;;;;;;;;;7366914;19;843;-64
2023/08/22 02:09:40;;;;;;;;;;;;;;;;;;7367333;19;786;-64
2023/08/22 02:12:08;;;;;;;;;;;;;;;;;;7366430;19;889;-65
2023/08/22 02:14:36;;;;;;;;;;;;;;;;;;7365024;19;1857;-64
2023/08/22 02:17:05;;;;;;;;;;;;;;;;;;7367767;19;805;-64
2023/08/22 02:19:33;;;;;;;;;;;;;;;;;;7366600;19;788;-64
2023/08/22 02:22:01;;;;;;;;;;;;;;;;;;7369342;19;906;-64
2023/08/22 02:24:29;;;;;;;;;;;;;;;;;;7366413;19;1364;-64
2023/08/22 02:26:57;;;;;;;;;;;;;;;;;;7367490;19;869;-63
2023/08/22 02:29:25;;;;;;;;;;;;;;;;;;7366134;19;795;-63
2023/08/22 02:31:54;;;;;;;;;;;;;;;;;;7365555;19;778;-63
2023/08/22 02:34:22;;;;;;;;;;;;;;;;;;7365785;19;1842;-64
2023/08/22 02:36:50;;;;;;;;;;;;;;;;;;7367719;19;836;-63
2023/08/22 02:39:18;;;;;;;;;;;;;;;;;;7368079;19;893;-63
2023/08/22 02:41:46;;;;;;;;;;;;;;;;;;7367838;19;761;-64
2023/08/22 02:44:15;;;;;;;;;;;;;;;;;;7364712;19;1357;-63
2023/08/22 02:46:43;;;;;;;;;;;;;;;;;;7367437;19;653;-63
2023/08/22 02:49:11;;;;;;;;;;;;;;;;;;7366545;19;810;-63
2023/08/22 02:51:39;;;;;;;;;;;;;;;;;;7367384;19;778;-64
2023/08/22 02:54:07;;;;;;;;;;;;;;;;;;7365156;19;1845;-63
2023/08/22 02:56:35;;;;;;;;;;;;;;;;;;7369477;19;917;-64
2023/08/22 02:59:04;;;;;;;;;;;;;;;;;;7365116;19;784;-62
2023/08/22 03:01:32;;;;;;;;;;;;;;;;;;7366897;19;822;-64
2023/08/22 03:04:00;;;;;;;;;;;;;;;;;;7364107;19;1329;-64
2023/08/22 03:06:29;;;;;;;;;;;;;;;;;;7365331;19;811;-64
2023/08/22 03:08:57;;;;;;;;;;;;;;;;;;7365325;19;849;-63
2023/08/22 03:11:25;;;;;;;;;;;;;;;;;;7365242;19;860;-64
2023/08/22 03:13:53;;;;;;;;;;;;;;;;;;7368407;19;1857;-63
2023/08/22 03:16:22;;;;;;;;;;;;;;;;;;7364935;19;775;-64
2023/08/22 03:18:50;;;;;;;;;;;;;;;;;;7364812;19;777;-63
2023/08/22 03:21:18;;;;;;;;;;;;;;;;;;7364981;19;869;-63
2023/08/22 03:23:46;;;;;;;;;;;;;;;;;;7362362;19;1358;-63
2023/08/22 03:26:17;;;;;;;;;;;;;;;;;;7364785;19;765;-63
2023/08/22 03:28:45;;;;;;;;;;;;;;;;;;7364907;19;807;-63
2023/08/22 03:31:13;;;;;;;;;;;;;;;;;;7368082;19;866;-62
2023/08/22 03:33:42;;;;;;;;;;;;;;;;;;7364975;19;1853;-63
2023/08/22 03:36:12;;;;;;;;;;;;;;;;;;7364204;19;847;-63
2023/08/22 03:38:40;;;;;;;;;;;;;;;;;;7364831;19;828;-63
2023/08/22 03:41:08;;;;;;;;;;;;;;;;;;7364480;19;815;-63
2023/08/22 03:43:36;;;;;;;;;;;;;;;;;;7364896;19;1315;-63
2023/08/22 03:46:06;;;;;;;;;;;;;;;;;;7363634;19;791;-64
2023/08/22 03:48:34;;;;;;;;;;;;;;;;;;7367396;19;744;-63
2023/08/22 03:51:03;;;;;;;;;;;;;;;;;;7364542;19;733;-64
2023/08/22 03:53:31;;;;;;;;;;;;;;;;;;7363563;19;1857;-64
2023/08/22 03:55:59;;;;;;;;;;;;;;;;;;7364096;19;779;-64
2023/08/22 03:58:27;;;;;;;;;;;;;;;;;;7363154;19;800;-64
2023/08/22 04:00:56;;;;;;;;;;;;;;;;;;7364637;19;1877;-64
2023/08/22 04:03:24;;;;;;;;;;;;;;;;;;7363709;19;1380;-64
2023/08/22 04:05:52;;;;;;;;;;;;;;;;;;7367417;19;1244;-64
2023/08/22 04:08:20;;;;;;;;;;;;;;;;;;7362639;19;810;-64
2023/08/22 04:10:50;;;;;;;;;;;;;;;;;;7362345;19;783;-64
2023/08/22 04:13:18;;;;;;;;;;;;;;;;;;7364092;19;1286;-64
2023/08/22 04:15:46;;;;;;;;;;;;;;;;;;7361224;19;1846;-64
2023/08/22 04:18:14;;;;;;;;;;;;;;;;;;7364188;19;790;-64
2023/08/22 04:20:43;;;;;;;;;;;;;;;;;;7365310;19;848;-65
2023/08/22 04:23:11;;;;;;;;;;;;;;;;;;7362809;19;1408;-64
2023/08/22 04:25:39;;;;;;;;;;;;;;;;;;7362976;19;746;-64
2023/08/22 04:28:07;;;;;;;;;;;;;;;;;;7361948;19;939;-64
2023/08/22 04:30:36;;;;;;;;;;;;;;;;;;7363537;19;852;-64
2023/08/22 04:33:05;;;;;;;;;;;;;;;;;;7361318;19;1371;-64
2023/08/22 04:35:33;;;;;;;;;;;;;;;;;;7365048;19;1845;-65
2023/08/22 04:38:01;;;;;;;;;;;;;;;;;;7370209;19;1066;-64
2023/08/22 04:40:29;;;;;;;;;;;;;;;;;;7369084;19;767;-64
2023/08/22 04:43:07;;;;;;;;;;;;;;;;;;7368952;19;1329;-64
2023/08/22 04:45:35;;;;;;;;;;;;;;;;;;7367470;19;778;-64
2023/08/22 04:48:04;;;;;;;;;;;;;;;;;;7367929;19;794;-64
2023/08/22 04:50:32;;;;;;;;;;;;;;;;;;7369721;19;1093;-64
2023/08/22 04:53:00;;;;;;;;;;;;;;;;;;7373349;19;1886;-64
2023/08/22 04:55:29;;;;;;;;;;;;;;;;;;7370582;19;1841;-64
2023/08/22 04:57:57;;;;;;;;;;;;;;;;;;7369877;19;837;-64
2023/08/22 05:00:25;;;;;;;;;;;;;;;;;;7367984;19;1661;-64
2023/08/22 05:02:54;;;;;;;;;;;;;;;;;;7368469;19;811;-64
2023/08/22 05:05:22;;;;;;;;;;;;;;;;;;7365796;19;1262;-64
2023/08/22 05:07:50;;;;;;;;;;;;;;;;;;7368783;19;755;-63
2023/08/22 05:10:18;;;;;;;;;;;;;;;;;;7367150;19;794;-64
2023/08/22 05:12:46;;;;;;;;;;;;;;;;;;7370946;19;870;-64
2023/08/22 05:15:15;;;;;;;;;;;;;;;;;;7367050;19;1849;-64
2023/08/22 05:17:43;;;;;;;;;;;;;;;;;;7369733;19;799;-64
2023/08/22 05:20:13;;;;;;;;;;;;;;;;;;7368139;19;783;-64
2023/08/22 05:22:42;;;;;;;;;;;;;;;;;;7369579;19;733;-64
2023/08/22 05:25:10;;;;;;;;;;;;;;;;;;7365312;19;1282;-64
2023/08/22 05:27:39;;;;;;;;;;;;;;;;;;7367912;19;694;-64
2023/08/22 05:30:07;;;;;;;;;;;;;;;;;;7371210;19;1086;-65
2023/08/22 05:32:36;;;;;;;;;;;;;;;;;;7367495;19;862;-64
2023/08/22 05:35:04;;;;;;;;;;;;;;;;;;7366565;19;1834;-64
2023/08/22 05:37:32;;;;;;;;;;;;;;;;;;7367027;19;854;-64
2023/08/22 05:40:00;;;;;;;;;;;;;;;;;;7366932;19;807;-64
2023/08/22 05:42:28;;;;;;;;;;;;;;;;;;7368255;19;759;-64
2023/08/22 05:44:57;;;;;;;;;;;;;;;;;;7366746;19;1308;-64
2023/08/22 05:47:26;;;;;;;;;;;;;;;;;;7365955;19;886;-64
2023/08/22 05:49:54;;;;;;;;;;;;;;;;;;7366367;19;847;-64
2023/08/22 05:52:25;;;;;;;;;;;;;;;;;;7366937;19;864;-64
2023/08/22 05:54:54;;;;;;;;;;;;;;;;;;7364015;19;1870;-65
2023/08/22 05:57:24;;;;;;;;;;;;;;;;;;7366733;19;770;-64
2023/08/22 05:59:53;;;;;;;;;;;;;;;;;;7365941;19;911;-63
2023/08/22 06:02:24;;;;;;;;;;;;;;;;;;7366448;19;1137;-63
2023/08/22 06:04:52;;;;;;;;;;;;;;;;;;7365295;19;1348;-64
2023/08/22 06:07:20;;;;;;;;;;;;;;;;;;7366631;19;791;-66
2023/08/22 06:09:49;;;;;;;;;;;;;;;;;;7367880;19;1758;-63
2023/08/22 06:12:17;;;;;;;;;;;;;;;;;;7368182;19;1600;-65
2023/08/22 06:14:45;;;;;;;;;;;;;;;;;;7368105;19;1849;-62
2023/08/22 06:17:13;;;;;;;;;;;;;;;;;;7369575;19;1859;-65
2023/08/22 06:19:41;;;;;;;;;;;;;;;;;;7369551;19;1768;-65
2023/08/22 06:22:10;;;;;;;;;;;;;;;;;;7370770;19;1853;-65
2023/08/22 06:24:38;;;;;;;;;;;;;;;;;;7367972;19;1411;-64
2023/08/22 06:27:06;;;;;;;;;;;;;;;;;;7369866;19;1930;-64
2023/08/22 06:29:34;;;;;;;;;;;;;;;;;;7371320;19;1683;-65
2023/08/22 06:32:03;;;;;;;;;;;;;;;;;;7367391;19;712;-65
2023/08/22 06:34:31;;;;;;;;;;;;;;;;;;7364342;19;1845;-65
2023/08/22 06:36:59;;;;;;;;;;;;;;;;;;7366755;19;752;-65
2023/08/22 06:39:27;;;;;;;;;;;;;;;;;;7368720;19;1382;-64
2023/08/22 06:41:55;;;;;;;;;;;;;;;;;;7369003;19;1699;-64
2023/08/22 06:44:26;;;;;;;;;;;;;;;;;;7365618;19;1326;-64
2023/08/22 06:46:55;;;;;;;;;;;;;;;;;;7367262;19;795;-65
2023/08/22 06:49:23;;;;;;;;;;;;;;;;;;7369120;19;2033;-64
2023/08/22 06:51:51;;;;;;;;;;;;;;;;;;7371935;19;1700;-65
2023/08/22 06:54:19;;;;;;;;;;;;;;;;;;7367463;19;1821;-64
2023/08/22 06:56:47;;;;;;;;;;;;;;;;;;7370044;19;794;-65
2023/08/22 06:59:16;;;;;;;;;;;;;;;;;;7370203;19;902;-65
2023/08/22 07:01:44;;;;;;;;;;;;;;;;;;7369695;19;843;-64
2023/08/22 07:04:12;;;;;;;;;;;;;;;;;;7369182;19;2081;-63
2023/08/22 07:06:40;;;;;;;;;;;;;;;;;;7374349;19;1475;-64
2023/08/22 07:09:09;;;;;;;;;;;;;;;;;;7369772;19;1531;-64
2023/08/22 07:11:37;;;;;;;;;;;;;;;;;;7371753;19;1747;-63
2023/08/22 07:14:05;;;;;;;;;;;;;;;;;;7369496;19;1701;-64
2023/08/22 07:16:33;;;;;;;;;;;;;;;;;;7366640;19;1850;-63
2023/08/22 07:19:02;;;;;;;;;;;;;;;;;;7372648;19;1727;-63
2023/08/22 07:21:30;;;;;;;;;;;;;;;;;;7368219;19;841;-63
2023/08/22 07:23:58;;;;;;;;;;;;;;;;;;7365732;19;2023;-63
2023/08/22 07:26:26;;;;;;;;;;;;;;;;;;7369937;19;1701;-63
2023/08/22 07:28:54;;;;;;;;;;;;;;;;;;7367894;19;1478;-64
2023/08/22 07:31:22;;;;;;;;;;;;;;;;;;7366580;19;715;-63
2023/08/22 07:33:50;;;;;;;;;;;;;;;;;;7365611;19;1321;-64
2023/08/22 07:36:19;;;;;;;;;;;;;;;;;;7363488;19;1850;-63
2023/08/22 07:38:47;;;;;;;;;;;;;;;;;;7364309;19;778;-63
2023/08/22 07:41:16;;;;;;;;;;;;;;;;;;7366484;19;840;-63
2023/08/22 07:43:44;;;;;;;;;;;;;;;;;;7366035;19;1751;-64
2023/08/22 07:46:12;;;;;;;;;;;;;;;;;;7365503;19;1482;-64
2023/08/22 07:48:40;;;;;;;;;;;;;;;;;;7367856;19;1664;-65
2023/08/22 07:51:09;;;;;;;;;;;;;;;;;;7365396;19;836;-64
2023/08/22 07:53:37;;;;;;;;;;;;;;;;;;7364672;19;1274;-64
2023/08/22 07:56:06;;;;;;;;;;;;;;;;;;7363321;19;1841;-64
2023/08/22 07:58:34;;;;;;;;;;;;;;;;;;7364954;19;902;-64
2023/08/22 08:01:03;;;;;;;;;;;;;;;;;;7364837;19;898;-64
2023/08/22 08:03:31;;;;;;;;;;;;;;;;;;7363818;19;1280;-64
2023/08/22 08:06:00;;;;;;;;;;;;;;;;;;7364672;19;766;-64
2023/08/22 08:08:28;;;;;;;;;;;;;;;;;;7364216;19;735;-64
2023/08/22 08:10:57;;;;;;;;;;;;;;;;;;7369947;19;817;-66
2023/08/22 08:13:25;;;;;;;;;;;;;;;;;;7371641;19;1257;-68
2023/08/22 08:15:53;;;;;;;;;;;;;;;;;;7370292;19;1837;-64
2023/08/22 08:18:21;;;;;;;;;;;;;;;;;;7369999;19;832;-64
2023/08/22 08:20:49;;;;;;;;;;;;;;;;;;7371565;19;809;-64
2023/08/22 08:23:17;;;;;;;;;;;;;;;;;;7371525;19;1286;-64
2023/08/22 08:25:46;;;;;;;;;;;;;;;;;;7372296;19;758;-64
2023/08/22 08:28:14;;;;;;;;;;;;;;;;;;7371389;19;1060;-65
2023/08/22 08:30:42;;;;;;;;;;;;;;;;;;7372367;19;869;-65
2023/08/22 08:33:11;;;;;;;;;;;;;;;;;;7370501;19;1255;-65
2023/08/22 08:35:39;;;;;;;;;;;;;;;;;;7369883;19;1845;-64
2023/08/22 08:38:07;;;;;;;;;;;;;;;;;;7369600;19;899;-64
2023/08/22 08:40:35;;;;;;;;;;;;;;;;;;7371043;19;856;-64
2023/08/22 08:43:03;;;;;;;;;;;;;;;;;;7370290;19;1281;-66
2023/08/22 08:45:31;;;;;;;;;;;;;;;;;;7369753;19;797;-64
2023/08/22 08:48:00;;;;;;;;;;;;;;;;;;7368985;19;792;-65
2023/08/22 08:50:28;;;;;;;;;;;;;;;;;;7370034;19;912;-65
2023/08/22 08:52:56;;;;;;;;;;;;;;;;;;7369525;19;833;-64
2023/08/22 08:55:24;;;;;;;;;;;;;;;;;;7368141;19;1849;-64
2023/08/22 08:57:52;;;;;;;;;;;;;;;;;;7369225;19;846;-64
2023/08/22 09:00:20;;;;;;;;;;;;;;;;;;7369997;19;817;-65
2023/08/22 09:02:48;;;;;;;;;;;;;;;;;;7370927;19;1654;-64
2023/08/22 09:05:17;;;;;;;;;;;;;;;;;;7371857;19;1377;-62
2023/08/22 09:07:45;;;;;;;;;;;;;;;;;;7373917;19;1804;-63
2023/08/22 09:10:13;;;;;;;;;;;;;;;;;;7370260;19;1707;-63
2023/08/22 09:12:41;;;;;;;;;;;;;;;;;;7371786;19;2075;-64
2023/08/22 09:15:09;;;;;;;;;;;;;;;;;;7369413;19;1835;-63
2023/08/22 09:17:38;;;;;;;;;;;;;;;;;;7372881;19;1697;-63
2023/08/22 09:20:10;;;;;;;;;;;;;;;;;;7371931;19;1633;-65
2023/08/22 09:22:38;;;;;;;;;;;;;;;;;;7370990;19;1491;-64
2023/08/22 09:25:07;;;;;;;;;;;;;;;;;;7369757;19;1755;-62
2023/08/22 09:27:35;;;;;;;;;;;;;;;;;;7373083;19;1627;-64
2023/08/22 09:30:04;;;;;;;;;;;;;;;;;;7369590;19;1594;-64
2023/08/22 09:32:32;;;;;;;;;;;;;;;;;;7369261;19;808;-65
2023/08/22 09:35:00;;;;;;;;;;;;;;;;;;7366212;19;1316;-64
2023/08/22 09:37:29;;;;;;;;;;;;;;;;;;7367049;19;793;-64
2023/08/22 09:39:57;;;;;;;;;;;;;;;;;;7367698;19;806;-64
2023/08/22 09:42:25;;;;;;;;;;;;;;;;;;7368900;19;811;-64
2023/08/22 09:44:53;;;;;;;;;;;;;;;;;;7369385;19;1288;-65
2023/08/22 09:47:21;;;;;;;;;;;;;;;;;;7369315;19;858;-64
2023/08/22 09:49:50;;;;;;;;;;;;;;;;;;7367882;19;797;-64
2023/08/22 09:52:18;;;;;;;;;;;;;;;;;;7368308;19;818;-64
2023/08/22 09:54:46;;;;;;;;;;;;;;;;;;7365898;19;1272;-66
2023/08/22 09:57:15;;;;;;;;;;;;;;;;;;7365763;19;1814;-65
2023/08/22 09:59:44;;;;;;;;;;;;;;;;;;7368658;19;924;-65
2023/08/22 10:02:12;;;;;;;;;;;;;;;;;;7370823;19;786;-65
2023/08/22 10:04:40;;;;;;;;;;;;;;;;;;7366962;19;1340;-65
2023/08/22 10:07:08;;;;;;;;;;;;;;;;;;7367522;19;830;-65
2023/08/22 10:09:37;;;;;;;;;;;;;;;;;;7367847;19;838;-65
2023/08/22 10:12:05;;;;;;;;;;;;;;;;;;7368017;19;900;-65
2023/08/22 10:14:33;;;;;;;;;;;;;;;;;;7366741;19;1233;-64
2023/08/22 10:17:01;;;;;;;;;;;;;;;;;;7365011;19;1880;-66
2023/08/22 10:19:30;;;;;;;;;;;;;;;;;;7371913;19;786;-64
2023/08/22 10:21:58;;;;;;;;;;;;;;;;;;7368248;19;860;-62
2023/08/22 10:24:26;;;;;;;;;;;;;;;;;;7365832;19;1304;-64
2023/08/22 10:26:54;;;;;;;;;;;;;;;;;;7367631;19;804;-64
2023/08/22 10:29:22;;;;;;;;;;;;;;;;;;7366576;19;888;-65
2023/08/22 10:31:51;;;;;;;;;;;;;;;;;;7366935;19;829;-65
2023/08/22 10:34:19;;;;;;;;;;;;;;;;;;7363449;19;1246;-65
2023/08/22 10:36:47;;;;;;;;;;;;;;;;;;7367278;19;1849;-66
2023/08/22 10:39:15;;;;;;;;;;;;;;;;;;7366508;19;775;-65
2023/08/22 10:41:43;;;;;;;;;;;;;;;;;;7367033;19;747;-65
2023/08/22 10:44:11;;;;;;;;;;;;;;;;;;7365254;19;1344;-65
2023/08/22 10:46:40;;;;;;;;;;;;;;;;;;7366482;19;791;-65
2023/08/22 10:49:08;;;;;;;;;;;;;;;;;;7367163;19;1696;-65
2023/08/22 10:51:36;;;;;;;;;;;;;;;;;;7367004;19;822;-65
2023/08/22 10:54:04;;;;;;;;;;;;;;;;;;7369284;19;1363;-65
2023/08/22 10:56:32;;;;;;;;;;;;;;;;;;7365982;19;1849;-66
2023/08/22 10:59:00;;;;;;;;;;;;;;;;;;7367022;19;842;-65
2023/08/22 11:01:29;;;;;;;;;;;;;;;;;;7366649;19;804;-65
2023/08/22 11:03:57;;;;;;;;;;;;;;;;;;7365617;19;1326;-66
2023/08/22 11:06:25;;;;;;;;;;;;;;;;;;7367228;19;737;-65
2023/08/22 11:08:53;;;;;;;;;;;;;;;;;;7365138;19;736;-66
2023/08/22 11:11:25;;;;;;;;;;;;;;;;;;7368077;19;853;-65
2023/08/22 11:13:53;;;;;;;;;;;;;;;;;;7364803;19;1333;-65
2023/08/22 11:16:21;;;;;;;;;;;;;;;;;;7364852;19;1849;-65
2023/08/22 11:18:49;;;;;;;;;;;;;;;;;;7365440;19;798;-66
2023/08/22 11:21:17;;;;;;;;;;;;;;;;;;7365017;19;804;-65
2023/08/22 11:23:45;;;;;;;;;;;;;;;;;;7364439;19;1292;-65
2023/08/22 11:26:14;;;;;;;;;;;;;;;;;;7365601;19;866;-65
2023/08/22 11:28:42;;;;;;;;;;;;;;;;;;7365431;19;839;-65
2023/08/22 11:31:10;;;;;;;;;;;;;;;;;;7365380;19;854;-65
2023/08/22 11:33:38;;;;;;;;;;;;;;;;;;7366073;19;2034;-65
2023/08/22 11:36:07;;;;;;;;;;;;;;;;;;7366582;19;1857;-68
2023/08/22 11:38:35;;;;;;;;;;;;;;;;;;7366782;19;1640;-65
2023/08/22 11:41:04;;;;;;;;;;;;;;;;;;7369265;19;1709;-65
2023/08/22 11:43:32;;;;;;;;;;;;;;;;;;7367707;19;1563;-65
2023/08/22 11:46:05;;;;;;;;;;;;;;;;;;7374199;19;1817;-65
2023/08/22 11:48:33;;;;;;;;;;;;;;;;;;7374939;19;1420;-65
2023/08/22 11:51:02;;;;;;;;;;;;;;;;;;7372054;19;829;-65
2023/08/22 11:53:30;;;;;;;;;;;;;;;;;;7371571;19;1261;-65
2023/08/22 11:55:59;;;;;;;;;;;;;;;;;;7372504;19;1834;-65
2023/08/22 11:58:27;;;;;;;;;;;;;;;;;;7371177;19;853;-65
2023/08/22 12:00:55;;;;;;;;;;;;;;;;;;7371698;19;860;-66
2023/08/22 12:03:23;;;;;;;;;;;;;;;;;;7372520;19;1290;-66
2023/08/22 12:05:51;;;;;;;;;;;;;;;;;;7371382;19;789;-66
2023/08/22 12:08:20;;;;;;;;;;;;;;;;;;7370673;19;1801;-66
2023/08/22 12:10:48;;;;;;;;;;;;;;;;;;7375697;19;1987;-66
2023/08/22 12:13:16;;;;;;;;;;;;;;;;;;7374163;19;1793;-65
2023/08/22 12:15:45;;;;;;;;;;;;;;;;;;7371929;19;1981;-66
2023/08/22 12:18:13;;;;;;;;;;;;;;;;;;7371112;19;1841;-65
2023/08/22 12:20:41;;;;;;;;;;;;;;;;;;7371265;19;806;-65
2023/08/22 12:23:09;;;;;;;;;;;;;;;;;;7370755;19;2070;-65
2023/08/22 12:25:37;;;;;;;;;;;;;;;;;;7375289;19;1648;-65
2023/08/22 12:28:06;;;;;;;;;;;;;;;;;;7373549;19;1705;-65
2023/08/22 12:30:35;;;;;;;;;;;;;;;;;;7370868;19;807;-65
2023/08/22 12:33:03;;;;;;;;;;;;;;;;;;7371622;19;890;-66
2023/08/22 12:35:31;;;;;;;;;;;;;;;;;;7373180;19;1679;-65
2023/08/22 12:37:59;;;;;;;;;;;;;;;;;;7372560;19;1849;-65
2023/08/22 12:40:27;;;;;;;;;;;;;;;;;;7373566;19;1717;-66
2023/08/22 12:42:56;;;;;;;;;;;;;;;;;;7373436;19;1412;-65
2023/08/22 12:45:24;;;;;;;;;;;;;;;;;;7369409;19;1727;-65
2023/08/22 12:47:52;;;;;;;;;;;;;;;;;;7373228;19;1611;-66
2023/08/22 12:50:20;;;;;;;;;;;;;;;;;;7371769;19;803;-65
2023/08/22 12:52:48;;;;;;;;;;;;;;;;;;7370640;19;811;-66
2023/08/22 12:55:18;;;;;;;;;;;;;;;;;;7368444;19;1344;-66
2023/08/22 12:57:47;;;;;;;;;;;;;;;;;;7368579;19;1853;-66
2023/08/22 13:00:15;;;;;;;;;;;;;;;;;;7373408;19;1754;-66
2023/08/22 13:02:43;;;;;;;;;;;;;;;;;;7375195;19;1394;-66
2023/08/22 13:05:13;;;;;;;;;;;;;;;;;;7368735;19;1300;-66
2023/08/22 13:07:43;;;;;;;;;;;;;;;;;;7372158;19;1298;-65
2023/08/22 13:10:11;;;;;;;;;;;;;;;;;;7372186;19;1493;-66
2023/08/22 13:12:40;;;;;;;;;;;;;;;;;;7374884;19;1496;-65
2023/08/22 13:15:08;;;;;;;;;;;;;;;;;;7369888;19;2002;-66
2023/08/22 13:17:36;;;;;;;;;;;;;;;;;;7370142;19;1873;-66
2023/08/22 13:20:04;;;;;;;;;;;;;;;;;;7372811;19;1779;-65
2023/08/22 13:22:33;;;;;;;;;;;;;;;;;;7372885;19;1649;-66
2023/08/22 13:25:01;;;;;;;;;;;;;;;;;;7370826;19;1827;-66
2023/08/22 13:27:29;;;;;;;;;;;;;;;;;;7373656;19;1300;-66
2023/08/22 13:29:58;;;;;;;;;;;;;;;;;;7372447;19;1364;-65
2023/08/22 13:32:26;;;;;;;;;;;;;;;;;;7374575;19;1188;-66
2023/08/22 13:34:54;;;;;;;;;;;;;;;;;;7367782;19;1305;-66
2023/08/22 13:37:24;;;;;;;;;;;;;;;;;;7367325;19;1837;-66
2023/08/22 13:39:53;;;;;;;;;;;;;;;;;;7369225;19;1693;-66
2023/08/22 13:42:21;;;;;;;;;;;;;;;;;;7373355;19;1494;-65
2023/08/22 13:44:49;;;;;;;;;;;;;;;;;;7365811;19;1805;-65
2023/08/22 13:47:17;;;;;;;;;;;;;;;;;;7372261;19;1551;-64
2023/08/22 13:49:45;;;;;;;;;;;;;;;;;;7372305;19;1473;-64
2023/08/22 13:52:13;;;;;;;;;;;;;;;;;;7369258;19;2105;-64
2023/08/22 13:54:42;;;;;;;;;;;;;;;;;;7369384;19;1728;-64
2023/08/22 13:57:10;;;;;;;;;;;;;;;;;;7371243;19;1853;-65
2023/08/22 13:59:38;;;;;;;;;;;;;;;;;;7368365;19;1730;-66
2023/08/22 14:02:06;;;;;;;;;;;;;;;;;;7371890;19;1683;-65
2023/08/22 14:04:34;;;;;;;;;;;;;;;;;;7369689;19;1734;-65
2023/08/22 14:07:02;;;;;;;;;;;;;;;;;;7367430;19;1387;-64
2023/08/22 14:09:31;;;;;;;;;;;;;;;;;;7368730;19;1871;-64
2023/08/22 14:11:59;;;;;;;;;;;;;;;;;;7371751;19;2024;-64
2023/08/22 14:14:28;;;;;;;;;;;;;;;;;;7369345;19;1578;-66
2023/08/22 14:16:56;;;;;;;;;;;;;;;;;;7372445;19;1858;-67
2023/08/22 14:19:24;;;;;;;;;;;;;;;;;;7367128;19;865;-64
2023/08/22 14:21:52;;;;;;;;;;;;;;;;;;7367809;19;2058;-65
2023/08/22 14:24:20;;;;;;;;;;;;;;;;;;7369595;19;1817;-65
2023/08/22 14:26:48;;;;;;;;;;;;;;;;;;7371658;19;1429;-65
2023/08/22 14:29:16;;;;;;;;;;;;;;;;;;7368362;19;2405;-65
2023/08/22 14:31:45;;;;;;;;;;;;;;;;;;7368310;19;1877;-65
2023/08/22 14:34:13;;;;;;;;;;;;;;;;;;7368163;19;1721;-65
2023/08/22 14:36:41;;;;;;;;;;;;;;;;;;7372368;19;1885;-65
2023/08/22 14:39:09;;;;;;;;;;;;;;;;;;7366849;19;787;-65
2023/08/22 14:41:37;;;;;;;;;;;;;;;;;;7366584;19;1385;-65
2023/08/22 14:44:06;;;;;;;;;;;;;;;;;;7370038;19;2044;-66
2023/08/22 14:46:34;;;;;;;;;;;;;;;;;;7366642;19;844;-66
2023/08/22 14:49:02;;;;;;;;;;;;;;;;;;7367375;19;801;-66
2023/08/22 14:51:30;;;;;;;;;;;;;;;;;;7371206;19;1400;-66
2023/08/22 14:53:58;;;;;;;;;;;;;;;;;;7370416;19;1592;-65
2023/08/22 14:56:26;;;;;;;;;;;;;;;;;;7370239;19;1433;-66
2023/08/22 14:58:55;;;;;;;;;;;;;;;;;;7362553;19;1904;-66
2023/08/22 15:01:23;;;;;;;;;;;;;;;;;;7370637;19;1842;-66
2023/08/22 15:03:51;;;;;;;;;;;;;;;;;;7364156;19;1659;-66
2023/08/22 15:06:19;;;;;;;;;;;;;;;;;;7366829;19;1785;-66
2023/08/22 15:08:47;;;;;;;;;;;;;;;;;;7367190;19;1847;-66
2023/08/22 15:11:16;;;;;;;;;;;;;;;;;;7370047;19;1526;-67
2023/08/22 15:13:44;;;;;;;;;;;;;;;;;;7365995;19;1759;-65
2023/08/22 15:16:12;;;;;;;;;;;;;;;;;;7366681;19;1843;-66
2023/08/22 15:18:40;;;;;;;;;;;;;;;;;;7364540;19;1880;-65
2023/08/22 15:21:08;;;;;;;;;;;;;;;;;;7365900;19;2002;-66
2023/08/22 15:23:37;;;;;;;;;;;;;;;;;;7369111;19;1499;-65
2023/08/22 15:26:06;;;;;;;;;;;;;;;;;;7364671;19;1250;-65
2023/08/22 15:28:34;;;;;;;;;;;;;;;;;;7368234;19;1671;-66
2023/08/22 15:31:02;;;;;;;;;;;;;;;;;;7369479;19;1460;-66
2023/08/22 15:33:30;;;;;;;;;;;;;;;;;;7365353;19;1278;-66
2023/08/22 15:35:58;;;;;;;;;;;;;;;;;;7367263;19;1817;-66
2023/08/22 15:38:26;;;;;;;;;;;;;;;;;;7364889;19;2029;-66
2023/08/22 15:40:55;;;;;;;;;;;;;;;;;;7369523;19;1447;-66
2023/08/22 15:43:23;;;;;;;;;;;;;;;;;;7365008;19;1292;-66
2023/08/22 15:45:51;;;;;;;;;;;;;;;;;;7366164;19;1725;-66
2023/08/22 15:48:19;;;;;;;;;;;;;;;;;;7367322;19;1634;-66
2023/08/22 15:50:49;;;;;;;;;;;;;;;;;;7369158;19;1470;-66
2023/08/22 15:53:17;;;;;;;;;;;;;;;;;;7363318;19;1246;-66
2023/08/22 15:55:45;;;;;;;;;;;;;;;;;;7366467;19;1833;-66
2023/08/22 15:58:13;;;;;;;;;;;;;;;;;;7364804;19;1835;-65
2023/08/22 16:00:43;;;;;;;;;;;;;;;;;;7364433;19;840;-65
2023/08/22 16:03:11;;;;;;;;;;;;;;;;;;7363724;19;1380;-65
2023/08/22 16:05:39;;;;;;;;;;;;;;;;;;7367426;19;1566;-66
2023/08/22 16:08:07;;;;;;;;;;;;;;;;;;7363092;19;804;-66
2023/08/22 16:10:35;;;;;;;;;;;;;;;;;;7365400;19;2001;-67
2023/08/22 16:13:03;;;;;;;;;;;;;;;;;;7368561;19;1579;-67
2023/08/22 16:15:32;;;;;;;;;;;;;;;;;;7365729;19;1756;-65
2023/08/22 16:18:00;;;;;;;;;;;;;;;;;;7366398;19;2021;-66
2023/08/22 16:20:28;;;;;;;;;;;;;;;;;;7366211;19;1811;-65
2023/08/22 16:22:56;;;;;;;;;;;;;;;;;;7367047;19;1732;-65
2023/08/22 16:25:24;;;;;;;;;;;;;;;;;;7360934;19;1674;-65
2023/08/22 16:27:52;;;;;;;;;;;;;;;;;;7366413;19;1678;-65
2023/08/22 16:30:22;;;;;;;;;;;;;;;;;;7367638;19;1801;-65
2023/08/22 16:32:50;;;;;;;;;;;;;;;;;;7372060;19;1716;-65
2023/08/22 16:35:18;;;;;;;;;;;;;;;;;;7369193;19;1539;-66
2023/08/22 16:37:47;;;;;;;;;;;;;;;;;;7371481;19;1849;-66
2023/08/22 16:40:15;;;;;;;;;;;;;;;;;;7370991;19;1712;-66
2023/08/22 16:42:43;;;;;;;;;;;;;;;;;;7371017;19;1537;-68
2023/08/22 16:45:11;;;;;;;;;;;;;;;;;;7371788;19;2129;-65
2023/08/22 16:47:39;;;;;;;;;;;;;;;;;;7372821;19;1699;-65
2023/08/22 16:50:08;;;;;;;;;;;;;;;;;;7371676;19;1817;-65
2023/08/22 16:52:36;;;;;;;;;;;;;;;;;;7373843;19;1690;-65
2023/08/22 16:55:04;;;;;;;;;;;;;;;;;;7368378;19;1735;-65
2023/08/22 16:57:33;;;;;;;;;;;;;;;;;;7371816;19;1855;-66
2023/08/22 17:00:03;;;;;;;;;;;;;;;;;;7371369;19;1595;-65
2023/08/22 17:02:32;;;;;;;;;;;;;;;;;;7371307;19;2071;-65
2023/08/22 17:05:00;;;;;;;;;;;;;;;;;;7372414;19;1532;-65
2023/08/22 17:07:28;;;;;;;;;;;;;;;;;;7369504;19;856;-66
2023/08/22 17:09:56;;;;;;;;;;;;;;;;;;7369758;19;1723;-66
2023/08/22 17:12:24;;;;;;;;;;;;;;;;;;7371636;19;1586;-65
2023/08/22 17:14:52;;;;;;;;;;;;;;;;;;7372162;19;1375;-65
2023/08/22 17:17:20;;;;;;;;;;;;;;;;;;7370919;19;2001;-65